createdAt,value
2023-01-18T08:08:41.335Z,0.50
2023-01-18T14:08:57.325Z,0.34
2023-01-18T14:09:57.222Z,0.34
2023-01-18T14:10:57.133Z,0.34
2023-01-18T14:11:57.032Z,0.34
2023-01-18T14:12:57.325Z,0.34
2023-01-18T14:13:56.858Z,0.37
2023-01-18T14:14:56.709Z,0.45
2023-01-18T14:15:56.626Z,0.49
2023-01-18T14:16:56.536Z,0.50
2023-01-18T14:17:58.783Z,0.52
2023-01-18T14:18:56.500Z,0.52
2023-01-18T14:19:56.466Z,0.51
2023-01-18T14:20:56.440Z,0.52
2023-01-18T14:21:56.403Z,0.53
2023-01-18T14:22:56.697Z,0.55
2023-01-18T14:23:56.336Z,0.52
2023-01-18T14:24:56.294Z,0.53
2023-01-18T14:25:56.267Z,0.50
2023-01-18T14:26:56.241Z,0.52
2023-01-18T14:27:56.212Z,0.51
2023-01-18T14:28:56.863Z,0.50
2023-01-18T14:29:56.160Z,0.52
2023-01-18T14:30:56.121Z,0.50
2023-01-18T14:31:56.089Z,0.50
2023-01-18T14:32:56.087Z,0.52
2023-01-18T14:33:55.971Z,0.52
2023-01-18T14:34:55.888Z,0.51
2023-01-18T14:35:55.857Z,0.50
2023-01-18T14:36:55.751Z,0.51
2023-01-18T14:37:58.999Z,0.50
2023-01-18T14:38:56.584Z,0.50
2023-01-18T14:39:55.493Z,0.50
2023-01-18T14:43:55.864Z,0.52
2023-01-18T17:28:48.205Z,0.99
2023-01-18T17:29:48.157Z,0.96
2023-01-18T17:30:48.163Z,0.98
2023-01-18T17:31:53.106Z,1.03
2023-01-18T17:33:47.900Z,1.03
2023-01-18T17:34:47.840Z,0.97
2023-01-18T17:35:47.750Z,1.02
2023-01-18T17:36:47.691Z,1.04
2023-01-18T17:37:47.600Z,1.00
2023-01-18T17:38:47.550Z,0.96
2023-01-18T17:40:02.600Z,0.95
2023-01-18T17:41:47.327Z,0.96
2023-01-18T17:42:47.250Z,0.96
2023-01-18T17:43:47.185Z,0.97
2023-01-18T17:44:47.115Z,0.97
2023-01-18T17:45:59.621Z,0.96
2023-01-18T17:47:46.894Z,0.96
2023-01-18T17:48:46.811Z,0.97
2023-01-18T17:49:46.743Z,0.96
2023-01-18T17:50:46.667Z,0.97
2023-01-18T17:51:46.630Z,0.98
2023-01-18T17:52:46.529Z,0.99
2023-01-18T17:53:46.435Z,0.99
2023-01-18T17:54:46.352Z,1.01
2023-01-18T17:55:46.268Z,1.00
2023-01-18T17:56:46.205Z,1.01
2023-01-18T17:57:46.124Z,1.01
2023-01-18T17:58:46.066Z,1.01
2023-01-18T17:59:45.979Z,1.01
2023-01-18T18:00:45.916Z,1.01
2023-01-18T18:01:45.992Z,1.01
2023-01-18T18:02:45.835Z,1.04
2023-01-18T18:03:45.675Z,1.03
2023-01-18T18:04:45.607Z,1.03
2023-01-18T18:05:45.549Z,1.03
2023-01-18T18:40:43.107Z,1.14
2023-01-18T18:41:44.052Z,1.14
2023-01-18T18:42:45.306Z,1.15
2023-01-18T18:43:43.844Z,1.15
2023-01-18T18:44:42.771Z,1.15
2023-01-18T18:45:42.696Z,1.15
2023-01-18T18:46:42.650Z,1.17
2023-01-18T18:47:43.434Z,1.19
2023-01-18T18:48:42.468Z,1.19
2023-01-18T18:49:42.391Z,1.19
2023-01-18T18:50:42.327Z,1.21
2023-01-18T18:51:42.319Z,1.20
2023-01-18T18:52:42.189Z,1.20
2023-01-18T18:53:42.131Z,1.20
2023-01-18T18:54:42.064Z,1.21
2023-01-18T18:55:41.981Z,1.21
2023-01-18T18:56:41.951Z,1.23
2023-01-18T18:57:41.843Z,1.21
2023-01-18T18:58:41.781Z,1.23
2023-01-18T18:59:41.714Z,1.21
2023-01-18T19:00:41.645Z,1.23
2023-01-18T19:01:41.580Z,1.22
2023-01-18T19:02:41.631Z,1.24
2023-01-18T19:34:39.551Z,1.36
2023-01-18T19:35:40.858Z,1.38
2023-01-18T19:39:39.310Z,1.39
2023-01-18T20:10:37.987Z,1.51
2023-01-18T20:30:37.225Z,1.57
2023-01-18T20:50:36.535Z,1.65
2023-01-18T20:51:36.490Z,1.68
2023-01-18T20:52:36.469Z,1.69
2023-01-18T20:53:36.443Z,1.70
2023-01-18T20:54:36.790Z,1.70
2023-01-18T20:55:36.366Z,1.70
2023-01-18T20:56:36.322Z,1.70
2023-01-18T20:57:36.288Z,1.70
2023-01-18T20:58:36.274Z,1.72
2023-01-18T20:59:36.323Z,1.70
2023-01-18T21:00:36.205Z,1.71
2023-01-18T21:01:36.283Z,1.74
2023-01-18T21:02:36.569Z,1.70
2023-01-18T21:03:36.123Z,1.73
2023-01-18T21:04:36.078Z,1.72
2023-01-18T21:05:36.053Z,1.71
2023-01-18T21:06:36.016Z,1.74
2023-01-18T21:07:35.990Z,1.75
2023-01-18T21:08:35.960Z,1.72
2023-01-18T21:09:35.919Z,1.70
2023-01-18T21:10:35.899Z,1.76
2023-01-18T21:11:35.874Z,1.75
2023-01-18T21:12:35.846Z,1.76
2023-01-18T21:13:36.489Z,1.74
2023-01-18T21:14:35.784Z,1.75
2023-01-18T21:15:35.752Z,1.77
2023-01-18T21:16:35.757Z,1.77
2023-01-18T21:17:35.709Z,1.77
2023-01-18T21:18:35.663Z,1.79
2023-01-18T21:19:35.778Z,1.76
2023-01-18T21:20:35.629Z,1.81
2023-01-18T21:21:35.586Z,1.78
2023-01-18T21:22:35.573Z,1.81
2023-01-18T21:23:35.531Z,1.79
2023-01-18T21:24:35.530Z,1.80
